Hauptseite
METAR-TAF:

METAR-TAF

Flughäfen :

Fliegerhorst Büchel

Büchel, Deutschland

Breite: 50-10N, Länge: 007-04E, Höhe: 478 m

Beobachtung

Neuester Wetterbericht von vor 21 Minuten, um 21:20 UTC
Wind 4 kt aus Nord
Temperatur 1°C
Luftfeuchtigkeit 69%
Luftdruck 1030 hPa
Sichtweite 10 km oder mehr

METAR: ETSB 132120Z AUTO 35004KT 9999 // ////// 01/M04 Q1030 ///

Zeit: 23:41 (21:41 UTC)

Prognose

Neuester Wetterbericht von vor 5 Stunden und 36 Minuten, um 16:05 UTC
Gültige Prognose vom 13 um 17 UTC bis 14 um 02 UTC
Wind 5 kt aus Nord
Sichtweite 10 km oder mehr
Aufgelockert bewölkt in der Höhe von 3000 ft

TAF: ETSB 131605Z 1317/1402 36005KT 9999 NSW SCT030 BY ETGL

Wetterbeobachtungen und Prognosen von mehr als 4000 Flughäfen (METAR und TAF Bericht).

Die verfügbaren Stationen werden durch gelbe und rote Markierungen auf der Karte dargestellt.

Führen Sie die Maus auf sie, um den Namen der Station zu sehen.

Darauf klicken, um die Beobachtung von Wetterbeobachtungen und Prognosen zu sehen.

Um die Karte zu ändern : klicken Sie auf den grünen Tasten mit einem schwarzen Kreuz Zum Vergrößern, auf den grünen Button mit einem Gedankenstrich zu verkleinern, oder auf die grünen Pfeile für benachbarte Karten.


METAR-TAF: